Time;durP1;ratioP1;P1;durP2;ratioP2;P2;SDS_P1;SDS_P2;PMS_P1;PMS_P2;Temp;Humidity;BMP_temperature;BMP_pressure;BME280_temperature;BME280_humidity;BME280_pressure;Samples;Min_cycle;Max_cycle;Signal;HPM_P1;HPM_P2
2022/03/24 00:01:28;;;;;;;45.58;28.77;;;;;;;4.78;68.35;102787.16;4974850;28;20030;-78
2022/03/24 00:03:54;;;;;;;49.38;30.95;;;;;;;4.80;67.66;102795.13;4979024;28;20574;-78
2022/03/24 00:06:19;;;;;;;44.63;28.75;;;;;;;4.79;68.48;102788.94;4973029;28;20035;-78
2022/03/24 00:08:45;;;;;;;48.85;28.75;;;;;;;4.76;67.96;102788.09;4992822;28;20069;-78
2022/03/24 00:11:10;;;;;;;46.97;28.98;;;;;;;4.70;68.08;102789.06;4990780;28;20050;-78
2022/03/24 00:13:36;;;;;;;46.83;30.85;;;;;;;4.66;69.06;102792.72;4985901;28;20109;-77
2022/03/24 00:16:02;;;;;;;50.13;31.88;;;;;;;4.66;68.38;102798.03;5000269;28;20399;-77
2022/03/24 00:18:31;;;;;;;47.00;31.27;;;;;;;4.65;69.15;102791.81;4986111;28;20467;-77
2022/03/24 00:20:56;;;;;;;46.92;30.25;;;;;;;4.62;69.67;102789.22;4982394;28;20062;-77
2022/03/24 00:23:22;;;;;;;49.67;31.33;;;;;;;4.59;69.65;102785.75;4978767;28;20413;-77
2022/03/24 00:25:47;;;;;;;49.22;31.15;;;;;;;4.58;69.49;102783.97;4971809;28;20051;-77
2022/03/24 00:28:12;;;;;;;42.72;28.75;;;;;;;4.51;69.98;102786.75;4974710;28;20514;-77
2022/03/24 00:30:38;;;;;;;49.13;31.98;;;;;;;4.43;69.62;102791.31;4987321;28;20068;-77
2022/03/24 00:33:03;;;;;;;43.00;29.15;;;;;;;4.38;70.35;102782.53;4978519;28;20047;-77
2022/03/24 00:35:28;;;;;;;53.50;32.38;;;;;;;4.34;70.05;102788.81;4975069;28;20105;-77
2022/03/24 00:37:53;;;;;;;49.83;29.48;;;;;;;4.25;70.82;102778.31;4973791;28;20047;-77
2022/03/24 00:40:19;;;;;;;47.05;30.48;;;;;;;4.18;70.33;102775.72;4978514;28;20026;-77
2022/03/24 00:42:45;;;;;;;49.20;28.75;;;;;;;4.12;71.19;102777.63;4980627;28;20085;-77
2022/03/24 00:45:12;;;;;;;50.28;30.63;;;;;;;4.09;71.49;102781.19;4981586;28;20034;-77
2022/03/24 00:47:38;;;;;;;48.28;28.10;;;;;;;4.08;71.68;102768.78;4972420;28;20031;-77
2022/03/24 00:50:04;;;;;;;49.50;27.85;;;;;;;4.08;71.24;102771.44;4986014;28;20074;-77
2022/03/24 00:52:30;;;;;;;44.20;28.05;;;;;;;4.10;71.25;102771.41;4981500;28;20397;-78
2022/03/24 00:54:56;;;;;;;47.97;28.67;;;;;;;4.14;70.76;102773.13;4983571;28;20034;-78
2022/03/24 00:57:24;;;;;;;48.20;27.73;;;;;;;4.13;71.33;102771.38;4988631;28;20073;-78
2022/03/24 00:59:49;;;;;;;52.15;29.98;;;;;;;4.12;70.82;102764.31;4978767;28;20482;-78
2022/03/24 01:02:14;;;;;;;44.10;28.42;;;;;;;4.11;70.99;102765.19;4978333;28;20038;-77
2022/03/24 01:04:41;;;;;;;49.38;29.88;;;;;;;4.17;71.11;102758.00;4980096;28;20027;-77
2022/03/24 01:07:07;;;;;;;49.30;30.25;;;;;;;4.20;71.41;102762.38;4981415;28;20117;-77
2022/03/24 01:09:32;;;;;;;50.00;30.05;;;;;;;4.25;70.63;102762.34;4986172;28;20084;-77
2022/03/24 01:11:57;;;;;;;47.70;27.42;;;;;;;4.30;70.65;102760.47;4989782;28;20500;-77
2022/03/24 01:14:23;;;;;;;44.53;28.75;;;;;;;4.31;71.23;102765.75;4961030;28;20038;-77
2022/03/24 01:16:51;;;;;;;48.33;29.95;;;;;;;4.29;70.07;102756.03;4982724;28;20161;-77
2022/03/24 01:19:16;;;;;;;46.80;27.00;;;;;;;4.22;71.20;102757.03;4972120;28;20026;-77
2022/03/24 01:21:42;;;;;;;43.35;29.63;;;;;;;4.11;70.46;102757.22;4988350;28;20390;-77
2022/03/24 01:24:08;;;;;;;43.17;28.77;;;;;;;4.01;71.43;102752.03;4980018;28;20054;-77
2022/03/24 01:26:34;;;;;;;43.35;27.95;;;;;;;3.94;71.69;102750.38;4974427;28;20030;-77
2022/03/24 01:29:00;;;;;;;51.83;31.30;;;;;;;3.88;71.68;102747.81;4971508;28;20034;-77
2022/03/24 01:31:25;;;;;;;46.03;27.42;;;;;;;3.84;71.98;102754.06;4981955;28;20029;-77
2022/03/24 01:33:50;;;;;;;46.45;29.33;;;;;;;3.85;72.19;102751.41;4987255;28;20026;-77
2022/03/24 01:36:16;;;;;;;48.15;27.92;;;;;;;3.87;72.13;102739.88;4976711;28;20030;-77
2022/03/24 01:38:42;;;;;;;45.65;27.83;;;;;;;3.85;71.92;102739.84;4976770;28;20037;-77
2022/03/24 01:41:08;;;;;;;50.58;31.35;;;;;;;3.85;72.31;102746.06;4987019;28;20497;-78
2022/03/24 01:43:34;;;;;;;51.33;28.45;;;;;;;3.84;72.25;102732.78;4984046;28;20022;-78
2022/03/24 01:46:00;;;;;;;46.38;29.50;;;;;;;3.82;72.22;102730.16;4989801;28;20044;-78
2022/03/24 01:48:26;;;;;;;48.35;29.00;;;;;;;3.78;72.28;102728.44;4978883;28;20109;-78
2022/03/24 01:50:52;;;;;;;46.17;29.75;;;;;;;3.74;72.15;102732.03;4986429;28;20027;-77
2022/03/24 01:53:18;;;;;;;47.58;29.83;;;;;;;3.67;71.98;102727.72;4988621;28;20092;-77
2022/03/24 01:55:45;;;;;;;48.80;29.45;;;;;;;3.61;72.91;102730.47;4984856;28;20522;-77
2022/03/24 01:58:12;;;;;;;47.35;29.38;;;;;;;3.57;72.83;102724.28;4972230;28;20542;-77
2022/03/24 02:00:37;;;;;;;47.67;31.02;;;;;;;3.67;72.38;102730.38;4983757;28;20026;-77
2022/03/24 02:03:04;;;;;;;44.95;28.90;;;;;;;3.68;72.58;102722.38;4980435;28;20019;-77
2022/03/24 02:05:31;;;;;;;45.53;28.70;;;;;;;3.66;72.47;102723.28;4990346;28;20022;-77
2022/03/24 02:07:56;;;;;;;42.92;28.65;;;;;;;3.58;72.25;102722.53;4976239;28;20501;-77
2022/03/24 02:10:22;;;;;;;46.47;28.38;;;;;;;3.55;73.03;102715.47;4977647;28;20062;-77
2022/03/24 02:12:47;;;;;;;46.55;29.20;;;;;;;3.52;71.79;102719.97;4983607;28;20130;-77
2022/03/24 02:15:12;;;;;;;42.35;25.88;;;;;;;3.46;72.05;102715.59;4975600;28;20038;-77
2022/03/24 02:17:39;;;;;;;47.05;29.35;;;;;;;3.45;72.89;102724.47;4986841;28;20034;-77
2022/03/24 02:20:09;;;;;;;46.80;29.95;;;;;;;3.39;71.88;102717.44;4985555;28;20022;-77
2022/03/24 02:22:34;;;;;;;46.97;27.50;;;;;;;3.40;72.88;102719.22;4975563;28;20035;-77
2022/03/24 02:25:00;;;;;;;45.83;28.63;;;;;;;3.41;73.13;102718.31;4990868;28;20061;-77
2022/03/24 02:27:25;;;;;;;46.35;28.90;;;;;;;3.44;72.54;102715.63;4991055;28;20418;-77
2022/03/24 02:29:51;;;;;;;44.03;28.85;;;;;;;3.48;72.43;102719.09;4985763;28;20413;-77
2022/03/24 02:32:21;;;;;;;43.75;27.23;;;;;;;3.47;72.38;102718.25;4993210;28;20034;-77
2022/03/24 02:34:51;;;;;;;45.13;28.23;;;;;;;3.44;72.53;102726.25;4989893;28;20113;-76
2022/03/24 02:37:25;;;;;;;44.85;28.33;;;;;;;3.44;72.00;102722.69;4983349;28;20038;-77
2022/03/24 02:39:57;;;;;;;44.20;27.67;;;;;;;3.44;72.10;102723.59;4990010;28;20033;-77
2022/03/24 02:42:26;;;;;;;44.80;25.60;;;;;;;3.46;72.10;102716.47;4989658;28;20049;-77
2022/03/24 02:44:53;;;;;;;42.00;28.02;;;;;;;3.45;71.73;102716.50;4987574;28;20027;-77
2022/03/24 02:47:19;;;;;;;52.60;30.77;;;;;;;3.43;72.18;102721.84;4988252;28;20085;-77
2022/03/24 02:49:47;;;;;;;48.40;27.88;;;;;;;3.38;72.34;102721.00;4982057;28;20104;-77
2022/03/24 02:52:13;;;;;;;45.25;29.73;;;;;;;3.35;72.02;102722.84;4979377;28;20369;-77
2022/03/24 02:54:40;;;;;;;45.30;27.90;;;;;;;3.27;71.42;102717.63;4979286;28;20478;-77
2022/03/24 02:57:06;;;;;;;40.22;26.23;;;;;;;3.22;71.69;102719.44;4991799;28;20084;-77
2022/03/24 02:59:33;;;;;;;45.13;27.73;;;;;;;3.14;72.29;102714.22;4985245;28;20037;-77
2022/03/24 03:02:00;;;;;;;48.38;28.35;;;;;;;3.08;72.84;102717.84;4976226;28;20022;-77
2022/03/24 03:04:31;;;;;;;41.53;26.42;;;;;;;3.03;72.77;102719.69;4972103;28;20062;-77
2022/03/24 03:06:57;;;;;;;44.00;27.08;;;;;;;2.94;72.64;102720.66;4989582;28;20030;-77
2022/03/24 03:09:23;;;;;;;44.88;28.55;;;;;;;2.94;72.98;102723.31;4978382;28;20504;-76
2022/03/24 03:11:49;;;;;;;46.00;27.05;;;;;;;2.97;72.47;102717.06;4986071;28;20026;-76
2022/03/24 03:14:17;;;;;;;50.78;29.65;;;;;;;3.00;72.37;102717.03;4974838;28;20069;-76
2022/03/24 03:16:44;;;;;;;42.95;27.77;;;;;;;3.00;72.20;102721.47;4985369;28;20104;-76
2022/03/24 03:19:10;;;;;;;43.08;27.13;;;;;;;2.98;72.11;102725.03;4995098;28;20041;-76
2022/03/24 03:21:36;;;;;;;44.10;28.20;;;;;;;2.97;72.45;102723.28;4973807;28;20383;-76
2022/03/24 03:24:03;;;;;;;47.33;27.90;;;;;;;3.00;71.90;102713.50;4984973;28;20108;-76
2022/03/24 03:26:29;;;;;;;47.55;26.65;;;;;;;2.99;72.34;102717.94;4985531;28;20038;-76
2022/03/24 03:28:54;;;;;;;46.75;27.23;;;;;;;3.00;72.76;102713.50;4971560;28;20049;-76
2022/03/24 03:31:20;;;;;;;49.95;28.08;;;;;;;3.05;72.14;102719.66;4973760;28;20033;-77
2022/03/24 03:33:45;;;;;;;47.50;30.20;;;;;;;3.06;72.59;102718.75;4981684;28;20085;-76
2022/03/24 03:36:11;;;;;;;49.25;29.83;;;;;;;3.06;72.06;102721.41;4987175;28;20101;-77
2022/03/24 03:38:36;;;;;;;51.20;29.08;;;;;;;3.02;71.78;102720.56;4977413;28;20030;-77
2022/03/24 03:41:02;;;;;;;47.97;30.17;;;;;;;3.01;72.48;102718.81;4986265;28;20053;-77
2022/03/24 03:43:28;;;;;;;48.08;28.13;;;;;;;2.99;72.53;102715.28;4978490;28;20109;-77
2022/03/24 03:45:53;;;;;;;46.50;28.20;;;;;;;2.94;73.12;102717.13;4988380;28;20023;-77
2022/03/24 03:48:18;;;;;;;49.10;28.98;;;;;;;2.90;72.91;102720.69;4989717;28;20129;-77
2022/03/24 03:50:44;;;;;;;47.30;30.98;;;;;;;2.89;72.77;102719.81;4979782;28;20033;-77
2022/03/24 03:53:10;;;;;;;45.97;28.27;;;;;;;2.89;72.85;102718.97;4979037;28;20076;-77
2022/03/24 03:55:36;;;;;;;46.78;27.48;;;;;;;2.84;71.63;102723.41;4972238;28;20081;-77
2022/03/24 03:58:03;;;;;;;44.40;26.08;;;;;;;2.79;71.26;102724.34;4980740;28;20033;-77
2022/03/24 04:03:12;;;;;;;46.10;29.02;;;;;;;2.77;72.42;102723.50;4987075;28;20062;-76
2022/03/24 04:05:38;;;;;;;46.47;27.83;;;;;;;2.72;72.91;102722.66;4977149;28;20434;-76
2022/03/24 04:08:03;;;;;;;44.88;28.48;;;;;;;2.70;72.92;102726.22;4987107;28;20034;-76
2022/03/24 04:10:30;;;;;;;53.90;30.08;;;;;;;2.69;73.34;102728.00;4988306;28;20062;-76
2022/03/24 04:12:55;;;;;;;40.85;27.17;;;;;;;2.71;73.37;102718.25;5006532;28;20033;-76
2022/03/24 04:15:22;;;;;;;44.83;30.08;;;;;;;2.76;73.26;102728.81;4980496;28;20475;-76
2022/03/24 04:17:48;;;;;;;50.78;31.67;;;;;;;2.75;73.47;102724.41;4986473;28;20474;-76
2022/03/24 04:20:13;;;;;;;48.85;32.38;;;;;;;2.72;72.78;102722.66;4979085;28;20033;-76
2022/03/24 04:22:39;;;;;;;48.53;30.02;;;;;;;2.72;73.18;102727.09;4980586;28;20023;-76
2022/03/24 04:25:05;;;;;;;52.65;30.00;;;;;;;2.69;72.68;102729.78;4990252;28;20046;-76
2022/03/24 04:27:30;;;;;;;44.45;29.23;;;;;;;2.70;72.44;102718.28;4988793;28;20049;-76
2022/03/24 04:29:55;;;;;;;48.90;29.90;;;;;;;2.70;73.03;102724.44;4995750;28;20045;-77
2022/03/24 04:32:21;;;;;;;50.00;28.08;;;;;;;2.70;72.80;102724.44;4985197;28;20018;-77
2022/03/24 04:34:46;;;;;;;51.60;30.85;;;;;;;2.66;73.04;102720.06;4987527;28;20030;-77
2022/03/24 04:37:12;;;;;;;48.58;29.00;;;;;;;2.62;73.47;102715.66;4986471;28;20093;-77
2022/03/24 04:39:37;;;;;;;45.92;30.52;;;;;;;2.57;73.41;102720.16;4983989;28;20030;-77
2022/03/24 04:42:06;;;;;;;48.10;29.75;;;;;;;2.54;72.70;102718.41;4978743;28;20044;-77
2022/03/24 04:44:32;;;;;;;51.15;30.42;;;;;;;2.53;72.76;102718.44;4989762;28;20026;-77
2022/03/24 04:46:57;;;;;;;44.30;28.85;;;;;;;2.48;73.08;102720.25;4989551;28;20030;-77
2022/03/24 04:49:22;;;;;;;50.47;29.67;;;;;;;2.43;72.51;102723.81;4977886;28;20546;-77
2022/03/24 04:51:47;;;;;;;45.45;28.20;;;;;;;2.36;72.55;102730.09;4972335;28;20019;-77
2022/03/24 04:54:14;;;;;;;43.08;27.25;;;;;;;2.32;72.72;102725.69;4987203;28;20030;-77
2022/03/24 04:56:39;;;;;;;45.30;27.70;;;;;;;2.24;72.93;102722.22;4987633;28;20533;-77
2022/03/24 04:59:04;;;;;;;43.40;26.33;;;;;;;2.17;73.79;102716.09;4977293;28;20088;-76
2022/03/24 05:01:30;;;;;;;50.42;28.25;;;;;;;2.14;73.88;102717.88;4981172;28;20025;-76
2022/03/24 05:03:55;;;;;;;42.63;27.55;;;;;;;2.12;74.17;102727.63;4985800;28;20034;-76
2022/03/24 05:06:21;;;;;;;42.78;27.48;;;;;;;2.09;74.46;102726.78;4979361;28;20026;-77
2022/03/24 05:08:46;;;;;;;47.42;28.60;;;;;;;2.08;74.42;102725.00;4982985;28;20405;-77
2022/03/24 05:11:11;;;;;;;51.28;29.70;;;;;;;1.99;75.00;102730.38;4970719;28;20011;-76
2022/03/24 05:13:37;;;;;;;45.08;28.00;;;;;;;1.95;75.17;102725.97;4980684;28;20018;-76
2022/03/24 05:16:02;;;;;;;48.58;28.65;;;;;;;1.92;76.23;102733.97;4982052;28;20034;-76
2022/03/24 05:18:27;;;;;;;57.88;28.98;;;;;;;1.92;74.93;102728.66;4989406;28;20030;-76
2022/03/24 05:20:53;;;;;;;47.28;27.70;;;;;;;1.91;75.41;102733.06;4988515;28;20038;-76
2022/03/24 05:23:18;;;;;;;49.20;29.05;;;;;;;1.92;75.16;102729.53;4976894;28;20034;-76
2022/03/24 05:25:47;;;;;;;47.05;27.13;;;;;;;1.94;75.87;102726.88;4983484;28;20062;-76
2022/03/24 05:28:13;;;;;;;51.35;27.88;;;;;;;1.89;76.25;102731.34;4978172;28;20031;-76
2022/03/24 05:30:38;;;;;;;46.38;28.63;;;;;;;1.88;76.39;102737.53;4970384;28;20085;-76
2022/03/24 05:33:04;;;;;;;53.60;29.27;;;;;;;1.87;76.18;102738.41;4986788;28;20465;-76
2022/03/24 05:35:32;;;;;;;53.88;29.83;;;;;;;1.90;76.26;102735.72;4975847;28;20031;-76
2022/03/24 05:37:58;;;;;;;43.95;28.27;;;;;;;1.88;76.64;102735.75;4975154;28;20062;-76
2022/03/24 05:40:23;;;;;;;47.63;28.52;;;;;;;1.86;76.25;102744.59;4988919;28;20073;-76
2022/03/24 05:42:49;;;;;;;56.88;28.60;;;;;;;1.82;76.50;102740.22;4987378;28;20038;-76
2022/03/24 05:45:14;;;;;;;48.08;27.58;;;;;;;1.78;76.04;102744.63;4988342;28;20034;-76
2022/03/24 05:47:39;;;;;;;51.17;29.38;;;;;;;1.81;75.95;102749.06;4987462;28;20041;-76
2022/03/24 05:50:05;;;;;;;49.03;30.48;;;;;;;1.84;76.08;102746.38;4971714;28;20058;-76
2022/03/24 05:52:30;;;;;;;43.72;28.65;;;;;;;1.82;76.17;102750.81;4985204;28;20044;-76
2022/03/24 05:54:55;;;;;;;48.65;28.55;;;;;;;1.79;76.12;102750.81;4989931;28;20034;-76
2022/03/24 05:57:24;;;;;;;48.28;30.02;;;;;;;1.74;76.61;102749.09;4974200;28;20041;-76
2022/03/24 05:59:49;;;;;;;48.88;30.13;;;;;;;1.72;76.67;102756.16;4977388;28;20030;-76
2022/03/24 06:02:14;;;;;;;48.30;29.13;;;;;;;1.70;76.53;102752.66;4988980;28;20113;-76
2022/03/24 06:04:42;;;;;;;44.15;28.90;;;;;;;1.67;76.89;102750.00;4984163;28;20041;-76
2022/03/24 06:07:08;;;;;;;49.55;29.40;;;;;;;1.66;77.04;102758.84;4993804;28;20081;-76
2022/03/24 06:09:34;;;;;;;49.60;30.40;;;;;;;1.69;76.88;102752.66;4980162;28;20103;-76
2022/03/24 06:12:00;;;;;;;46.40;30.00;;;;;;;1.75;76.98;102757.91;4975448;28;20051;-76
2022/03/24 06:14:25;;;;;;;51.30;30.73;;;;;;;1.80;76.31;102753.47;4984178;28;20142;-76
2022/03/24 06:16:51;;;;;;;50.28;32.13;;;;;;;1.84;76.97;102763.16;4980952;28;20054;-76
2022/03/24 06:19:16;;;;;;;48.20;30.10;;;;;;;1.89;76.76;102761.38;4976446;28;20371;-76
2022/03/24 06:21:42;;;;;;;49.50;31.70;;;;;;;1.98;76.67;102759.56;4987237;28;20037;-76
2022/03/24 06:24:07;;;;;;;47.95;29.77;;;;;;;2.03;77.13;102758.63;4988207;28;20423;-76
2022/03/24 06:26:33;;;;;;;44.97;31.88;;;;;;;2.09;76.20;102758.59;4992208;28;20037;-77
2022/03/24 06:29:01;;;;;;;50.60;31.38;;;;;;;2.14;76.24;102763.88;4991801;28;20037;-77
2022/03/24 06:31:27;;;;;;;49.15;32.45;;;;;;;2.22;76.25;102763.81;4972770;28;20478;-77
2022/03/24 06:33:53;;;;;;;50.00;30.67;;;;;;;2.28;77.29;102763.75;4989496;28;20033;-77
2022/03/24 06:36:18;;;;;;;50.90;31.95;;;;;;;2.35;75.98;102757.50;4983117;28;20033;-77
2022/03/24 06:38:44;;;;;;;51.70;31.05;;;;;;;2.46;75.41;102762.75;4990040;28;20088;-77
2022/03/24 06:41:10;;;;;;;51.42;33.35;;;;;;;2.56;75.55;102758.22;4988694;28;20038;-77
2022/03/24 06:43:35;;;;;;;49.70;33.15;;;;;;;2.69;75.91;102758.97;4991086;28;20033;-77
2022/03/24 06:46:01;;;;;;;52.05;31.45;;;;;;;2.82;75.25;102759.75;4991310;28;20034;-77
2022/03/24 06:48:27;;;;;;;55.63;35.38;;;;;;;2.92;74.91;102761.41;4960121;28;20109;-77
2022/03/24 06:50:52;;;;;;;52.22;32.78;;;;;;;3.02;74.54;102763.06;4987627;28;20015;-77
2022/03/24 06:53:17;;;;;;;55.90;33.13;;;;;;;3.10;74.92;102765.63;4983651;28;20033;-77
2022/03/24 06:55:43;;;;;;;56.90;33.88;;;;;;;3.19;75.09;102754.03;4982145;28;20090;-77
2022/03/24 06:58:08;;;;;;;50.15;32.25;;;;;;;3.30;75.77;102763.63;4991041;28;20370;-77
2022/03/24 07:00:34;;;;;;;51.92;34.55;;;;;;;3.42;75.89;102769.69;4989022;28;20049;-77
2022/03/24 07:02:59;;;;;;;53.83;33.92;;;;;;;3.53;75.84;102770.44;4991947;28;20467;-77
2022/03/24 07:05:25;;;;;;;51.05;33.03;;;;;;;3.62;74.71;102765.00;4989508;28;20034;-77
2022/03/24 07:07:50;;;;;;;49.17;32.78;;;;;;;3.70;74.87;102767.56;4983564;28;20483;-76
2022/03/24 07:10:16;;;;;;;53.35;35.75;;;;;;;3.80;75.22;102763.00;4979529;28;20085;-76
2022/03/24 07:12:42;;;;;;;61.10;36.63;;;;;;;3.89;75.14;102757.53;4988247;28;20027;-76
2022/03/24 07:15:08;;;;;;;52.72;37.92;;;;;;;3.98;74.47;102768.06;4985842;28;20390;-77
2022/03/24 07:17:34;;;;;;;59.72;40.53;;;;;;;4.05;73.90;102766.16;4988693;28;20039;-77
2022/03/24 07:20:00;;;;;;;58.55;37.00;;;;;;;4.15;73.79;102767.78;4976089;28;20433;-77
2022/03/24 07:22:25;;;;;;;58.53;37.88;;;;;;;4.24;73.13;102773.88;4982285;28;20030;-77
2022/03/24 07:24:50;;;;;;;55.50;38.63;;;;;;;4.33;72.31;102773.72;4981680;28;20078;-78
2022/03/24 07:27:16;;;;;;;52.30;36.38;;;;;;;4.42;72.53;102778.88;4976038;28;20074;-77
2022/03/24 07:29:41;;;;;;;55.42;38.80;;;;;;;4.52;72.50;102777.88;4988535;28;20034;-77
2022/03/24 07:32:08;;;;;;;51.10;36.00;;;;;;;4.63;71.57;102782.13;4983399;28;20023;-74
2022/03/24 07:34:34;;;;;;;51.95;36.25;;;;;;;4.71;71.57;102786.41;4982521;28;20411;-78
2022/03/24 07:37:00;;;;;;;52.90;35.33;;;;;;;4.79;72.20;102780.94;4989901;28;20038;-77
2022/03/24 07:39:25;;;;;;;52.63;36.42;;;;;;;4.88;72.24;102775.44;4985523;28;20133;-77
2022/03/24 07:41:50;;;;;;;52.30;35.88;;;;;;;4.97;72.74;102782.38;4986005;28;20088;-78
2022/03/24 07:44:16;;;;;;;56.67;34.75;;;;;;;5.06;72.54;102781.31;4978516;28;20394;-78
2022/03/24 07:46:41;;;;;;;58.03;35.55;;;;;;;5.15;73.04;102781.13;4990468;28;20088;-78
2022/03/24 07:49:06;;;;;;;56.63;38.08;;;;;;;5.25;72.70;102777.38;4983527;28;20033;-78
2022/03/24 07:51:34;;;;;;;54.00;34.33;;;;;;;5.34;71.85;102781.66;4972073;28;20031;-78
2022/03/24 07:54:02;;;;;;;53.55;34.92;;;;;;;5.42;72.08;102779.72;4974593;28;20026;-77
2022/03/24 07:56:29;;;;;;;53.90;36.10;;;;;;;5.51;72.20;102777.78;4991065;28;20034;-78
2022/03/24 07:58:56;;;;;;;59.05;34.53;;;;;;;5.60;72.21;102778.44;4990693;28;20034;-78
2022/03/24 08:01:27;;;;;;;53.38;34.58;;;;;;;5.70;72.41;102781.81;4995240;28;20049;-77
2022/03/24 08:03:55;;;;;;;50.85;35.28;;;;;;;5.84;72.51;102775.28;5002687;28;20037;-78
2022/03/24 08:06:21;;;;;;;49.15;34.53;;;;;;;5.90;71.88;102777.81;5003430;28;20364;-78
2022/03/24 08:08:46;;;;;;;49.80;32.05;;;;;;;6.02;69.35;102785.59;4995943;28;20482;-78
2022/03/24 08:11:12;;;;;;;55.13;35.47;;;;;;;6.09;70.79;102787.19;5003891;28;20105;-78
2022/03/24 08:13:37;;;;;;;50.10;34.58;;;;;;;6.20;69.58;102786.06;5004634;28;20056;-78
2022/03/24 08:16:03;;;;;;;52.03;35.05;;;;;;;6.34;70.04;102783.06;5005404;28;20105;-78
2022/03/24 08:18:28;;;;;;;50.72;33.38;;;;;;;6.45;69.46;102789.00;4999342;28;20424;-77
2022/03/24 08:20:53;;;;;;;49.08;31.67;;;;;;;6.48;69.06;102784.47;5004151;28;20169;-77
2022/03/24 08:23:19;;;;;;;53.25;31.35;;;;;;;6.57;66.27;102787.81;4996620;28;20989;-78
2022/03/24 08:25:44;;;;;;;47.33;29.50;;;;;;;6.65;64.99;102784.03;5003097;28;20049;-77
2022/03/24 08:28:12;;;;;;;50.03;32.17;;;;;;;6.85;62.65;102789.78;5000594;28;20030;-76
2022/03/24 08:30:39;;;;;;;44.63;27.70;;;;;;;6.94;61.20;102789.53;4998351;28;20509;-75
2022/03/24 08:33:05;;;;;;;45.40;29.88;;;;;;;7.03;60.92;102791.09;4998323;28;20409;-76
2022/03/24 08:35:31;;;;;;;46.65;32.35;;;;;;;7.17;63.38;102792.47;4995692;28;20377;-76
2022/03/24 08:37:56;;;;;;;50.15;32.33;;;;;;;7.32;64.78;102787.59;4995314;28;20038;-77
2022/03/24 08:40:22;;;;;;;44.30;29.88;;;;;;;7.37;62.73;102792.84;5003252;28;20030;-78
2022/03/24 08:42:47;;;;;;;45.67;29.45;;;;;;;7.45;61.88;102788.13;5006188;28;20018;-79
2022/03/24 08:45:14;;;;;;;44.45;28.02;;;;;;;7.47;57.62;102791.66;5002229;28;20116;-79
2022/03/24 08:47:40;;;;;;;45.05;30.23;;;;;;;7.53;59.86;102791.47;5002975;28;20041;-78
2022/03/24 08:50:07;;;;;;;44.40;28.95;;;;;;;7.60;58.95;102792.16;4998211;28;20038;-78
2022/03/24 08:52:33;;;;;;;41.78;27.55;;;;;;;7.68;57.99;102800.84;4980080;28;20401;-78
2022/03/24 08:54:58;;;;;;;45.63;27.75;;;;;;;7.74;58.59;102791.75;5001214;28;20030;-78
2022/03/24 08:57:27;;;;;;;45.83;30.02;;;;;;;7.98;59.85;102793.69;5005088;28;20160;-78
2022/03/24 09:00:02;;;;;;;41.17;29.50;;;;;;;8.09;59.23;102789.78;5003419;28;20603;-78
2022/03/24 09:02:28;;;;;;;45.58;30.08;;;;;;;8.29;58.42;102798.06;5004747;28;20375;-78
2022/03/24 09:04:54;;;;;;;45.72;29.70;;;;;;;8.46;56.34;102799.34;5002879;28;20034;-78
2022/03/24 09:07:20;;;;;;;45.78;29.33;;;;;;;8.65;55.56;102805.81;5007973;28;20040;-78
2022/03/24 09:09:45;;;;;;;46.90;28.35;;;;;;;8.65;55.59;102802.28;5004465;28;20037;-78
2022/03/24 09:12:11;;;;;;;40.92;28.10;;;;;;;8.74;56.16;102800.16;5006258;28;20582;-78
2022/03/24 09:14:41;;;;;;;39.28;26.40;;;;;;;8.79;54.34;102802.69;4989267;28;20041;-78
2022/03/24 09:17:08;;;;;;;45.20;28.20;;;;;;;8.88;55.41;102806.84;5006894;28;20033;-78
2022/03/24 09:19:34;;;;;;;44.17;27.73;;;;;;;9.01;54.78;102812.69;5006926;28;20522;-78
2022/03/24 09:22:00;;;;;;;44.42;26.65;;;;;;;9.13;54.30;102800.63;4995255;28;20034;-78
2022/03/24 09:24:26;;;;;;;39.30;26.83;;;;;;;9.24;54.12;102809.19;5000420;28;20407;-78
2022/03/24 09:26:53;;;;;;;47.20;28.73;;;;;;;9.37;52.36;102813.16;4994032;28;20034;-76
2022/03/24 09:29:18;;;;;;;44.70;28.83;;;;;;;9.58;51.14;102814.16;4993616;28;20109;-77
2022/03/24 09:31:43;;;;;;;42.03;27.08;;;;;;;9.74;51.72;102805.53;4992460;28;20109;-77
2022/03/24 09:34:09;;;;;;;44.30;30.08;;;;;;;9.75;51.97;102804.56;5005387;28;20030;-77
2022/03/24 09:36:35;;;;;;;41.53;24.95;;;;;;;9.78;52.69;102802.66;5007465;28;20037;-77
2022/03/24 09:39:01;;;;;;;43.03;28.45;;;;;;;9.86;51.80;102807.72;5004442;28;20044;-77
2022/03/24 09:41:27;;;;;;;40.20;24.60;;;;;;;10.02;49.01;102807.16;5006455;28;20494;-77
2022/03/24 09:43:53;;;;;;;41.03;25.17;;;;;;;10.23;47.55;102800.03;5007872;28;20026;-77
2022/03/24 09:46:19;;;;;;;38.28;23.73;;;;;;;10.30;48.75;102802.38;5014317;28;20088;-77
2022/03/24 09:48:44;;;;;;;35.38;22.48;;;;;;;10.40;46.75;102800.25;5009883;28;20041;-77
2022/03/24 09:51:11;;;;;;;41.25;24.00;;;;;;;10.59;48.12;102810.25;4991419;28;20015;-77
2022/03/24 09:53:39;;;;;;;37.92;24.48;;;;;;;10.68;46.64;102796.41;4980185;28;20026;-77
2022/03/24 09:56:05;;;;;;;35.92;22.52;;;;;;;10.72;45.92;102802.50;4989652;28;20026;-77
2022/03/24 09:58:30;;;;;;;33.67;20.55;;;;;;;10.76;42.85;102799.66;4977516;28;20754;-77
2022/03/24 10:00:55;;;;;;;36.58;23.55;;;;;;;10.86;41.69;102793.84;4991844;28;20137;-77
2022/03/24 10:03:22;;;;;;;38.28;23.50;;;;;;;11.00;42.04;102802.22;4994307;28;20048;-77
2022/03/24 10:05:56;;;;;;;36.72;22.10;;;;;;;11.05;42.92;102794.78;5008875;28;20030;-76
2022/03/24 10:08:21;;;;;;;33.38;20.08;;;;;;;11.14;42.61;102805.16;4992881;28;20414;-74
2022/03/24 10:10:47;;;;;;;36.72;22.13;;;;;;;11.40;40.60;102799.56;4992005;28;20029;-78
2022/03/24 10:13:12;;;;;;;33.25;20.83;;;;;;;11.56;38.75;102797.03;5003912;28;20176;-78
2022/03/24 10:15:38;;;;;;;31.15;19.38;;;;;;;11.68;40.75;102800.03;5001767;28;20034;-77
2022/03/24 10:18:04;;;;;;;29.38;16.42;;;;;;;11.75;40.90;102795.22;5002151;28;20034;-77
2022/03/24 10:20:30;;;;;;;33.75;19.33;;;;;;;11.77;39.03;102797.84;5005826;28;20045;-77
2022/03/24 10:23:00;;;;;;;31.95;18.02;;;;;;;11.83;36.96;102789.44;5005731;28;20063;-77
2022/03/24 10:25:26;;;;;;;31.63;16.60;;;;;;;11.96;38.40;102784.41;5005922;28;20060;-77
2022/03/24 10:28:05;;;;;;;32.10;17.38;;;;;;;12.04;35.58;102784.91;5003823;28;20385;-77
2022/03/24 10:30:57;;;;;;;32.55;18.45;;;;;;;12.16;38.39;102784.28;5003124;28;20053;-77
2022/03/24 10:33:37;;;;;;;30.80;18.15;;;;;;;12.36;36.74;102785.16;5001925;28;20033;-78
2022/03/24 10:36:09;;;;;;;31.17;19.63;;;;;;;12.45;37.95;102781.13;5005777;28;20088;-78
2022/03/24 10:38:36;;;;;;;31.50;17.20;;;;;;;12.53;36.58;102784.28;4993222;28;20033;-78
2022/03/24 10:41:15;;;;;;;38.63;18.15;;;;;;;12.60;34.60;102783.03;5004622;28;20445;-78
2022/03/24 10:43:40;;;;;;;30.95;18.42;;;;;;;12.73;34.31;102785.97;4995323;28;20037;-78
2022/03/24 10:46:16;;;;;;;34.17;19.65;;;;;;;12.69;34.88;102781.69;5002030;28;20481;-78
2022/03/24 10:48:43;;;;;;;31.83;17.80;;;;;;;12.76;33.54;102783.97;5007666;28;20068;-78
2022/03/24 10:51:09;;;;;;;30.25;17.95;;;;;;;12.82;37.50;102781.94;5000284;28;20084;-78
2022/03/24 10:53:40;;;;;;;30.15;16.33;;;;;;;12.77;33.64;102787.56;4997349;28;20037;-78
2022/03/24 10:56:27;;;;;;;31.55;19.98;;;;;;;12.91;35.94;102786.84;5000785;28;20030;-78
2022/03/24 10:58:59;;;;;;;31.13;17.50;;;;;;;12.98;35.90;102787.41;4997705;28;20087;-78
2022/03/24 11:01:27;;;;;;;33.10;20.58;;;;;;;13.06;36.50;102782.44;4999772;28;20435;-78
2022/03/24 11:03:52;;;;;;;33.75;17.80;;;;;;;12.99;38.06;102784.63;4998624;28;20034;-78
2022/03/24 11:06:20;;;;;;;31.40;20.35;;;;;;;12.94;34.13;102787.56;5002114;28;20053;-78
2022/03/24 11:08:59;;;;;;;34.05;21.15;;;;;;;13.00;36.64;102782.78;4992294;28;20030;-78
2022/03/24 11:11:25;;;;;;;31.70;18.48;;;;;;;13.04;34.60;102787.06;5002185;28;20022;-78
2022/03/24 11:13:53;;;;;;;32.05;17.95;;;;;;;13.12;35.67;102784.84;4997153;28;20048;-78
2022/03/24 11:16:24;;;;;;;33.60;18.75;;;;;;;13.13;33.75;102780.31;4999744;28;20041;-78